createdAt,value
2022-10-17T00:01:02.011Z,11.30
2022-10-17T00:03:36.083Z,11.17
2022-10-17T00:06:13.914Z,11.34
2022-10-17T00:08:42.286Z,11.19
2022-10-17T00:11:20.337Z,11.09
2022-10-17T00:13:53.950Z,10.81
2022-10-17T00:16:30.428Z,10.71
2022-10-17T00:18:57.603Z,10.79
2022-10-17T00:21:26.281Z,10.69
2022-10-17T00:23:55.144Z,10.81
2022-10-17T00:26:22.883Z,10.77
2022-10-17T00:28:51.390Z,10.81
2022-10-17T00:31:20.855Z,10.75
2022-10-17T00:33:48.263Z,10.61
2022-10-17T00:36:19.307Z,10.63
2022-10-17T00:38:50.088Z,10.85
2022-10-17T00:41:20.791Z,10.93
2022-10-17T00:44:05.119Z,11.07
2022-10-17T00:46:42.965Z,11.18
2022-10-17T00:49:12.531Z,11.16
2022-10-17T00:51:50.881Z,11.30
2022-10-17T00:54:23.208Z,11.25
2022-10-17T00:56:52.135Z,11.32
2022-10-17T00:59:22.008Z,11.16
2022-10-17T01:01:57.029Z,11.22
2022-10-17T01:04:24.165Z,11.20
2022-10-17T01:06:51.518Z,11.13
2022-10-17T01:09:18.927Z,11.13
2022-10-17T01:12:07.741Z,11.10
2022-10-17T01:14:56.465Z,11.05
2022-10-17T01:17:33.835Z,11.12
2022-10-17T01:20:25.815Z,11.21
2022-10-17T01:23:14.519Z,11.08
2022-10-17T01:25:57.445Z,10.95
2022-10-17T01:28:48.555Z,11.02
2022-10-17T01:31:19.340Z,10.95
2022-10-17T01:33:54.939Z,10.78
2022-10-17T01:36:31.053Z,10.82
2022-10-17T01:39:42.635Z,10.85
2022-10-17T01:42:27.263Z,10.80
2022-10-17T01:45:04.197Z,10.95
2022-10-17T01:47:33.724Z,10.87
2022-10-17T01:50:11.686Z,10.75
2022-10-17T01:52:43.832Z,10.54
2022-10-17T01:55:16.801Z,10.77
2022-10-17T01:57:50.190Z,10.55
2022-10-17T02:00:22.318Z,10.68
2022-10-17T02:03:00.467Z,10.59
2022-10-17T02:05:35.368Z,10.58
2022-10-17T02:08:02.644Z,10.68
2022-10-17T02:10:52.187Z,10.47
2022-10-17T02:13:38.216Z,10.41
2022-10-17T02:16:40.600Z,10.15
2022-10-17T02:19:22.857Z,10.19
2022-10-17T02:22:04.549Z,10.40
2022-10-17T02:24:57.767Z,10.42
2022-10-17T02:27:48.932Z,10.43
2022-10-17T02:30:29.380Z,10.37
2022-10-17T02:33:03.095Z,10.17
2022-10-17T02:35:35.414Z,9.95
2022-10-17T02:38:05.346Z,10.08
2022-10-17T02:40:33.071Z,10.21
2022-10-17T02:43:03.516Z,10.19
2022-10-17T02:45:35.971Z,10.23
2022-10-17T02:48:19.518Z,10.36
2022-10-17T02:51:28.924Z,10.49
2022-10-17T02:54:11.452Z,10.41
2022-10-17T02:56:57.789Z,10.23
2022-10-17T02:59:27.459Z,10.16
2022-10-17T03:01:54.876Z,10.08
2022-10-17T03:04:22.229Z,10.28
2022-10-17T03:06:49.796Z,10.54
2022-10-17T03:09:19.044Z,10.64
2022-10-17T03:11:46.248Z,10.48
2022-10-17T03:14:13.756Z,10.57
2022-10-17T03:16:41.376Z,10.62
2022-10-17T03:19:08.950Z,10.49
2022-10-17T03:21:37.949Z,10.40
2022-10-17T03:24:07.203Z,10.34
2022-10-17T03:26:34.744Z,10.32
2022-10-17T03:29:03.640Z,10.31
2022-10-17T03:31:31.542Z,10.49
2022-10-17T03:34:02.090Z,10.33
2022-10-17T03:36:29.499Z,10.37
2022-10-17T03:38:57.378Z,10.06
2022-10-17T03:41:24.540Z,10.01
2022-10-17T03:43:54.154Z,10.05
2022-10-17T03:46:21.877Z,9.76
2022-10-17T03:48:49.488Z,9.68
2022-10-17T03:51:16.855Z,9.57
2022-10-17T03:53:49.935Z,9.61
2022-10-17T03:56:22.816Z,9.79
2022-10-17T03:59:14.747Z,9.93
2022-10-17T04:01:44.800Z,9.96
2022-10-17T04:04:13.272Z,10.08
2022-10-17T04:06:40.575Z,9.99
2022-10-17T04:09:07.949Z,9.90
2022-10-17T04:11:44.789Z,10.03
2022-10-17T04:14:13.113Z,10.15
2022-10-17T04:16:40.479Z,10.19
2022-10-17T04:19:14.109Z,10.31
2022-10-17T04:21:46.770Z,10.29
2022-10-17T04:24:15.226Z,10.06
2022-10-17T04:26:51.163Z,9.94
2022-10-17T04:29:24.725Z,10.02
2022-10-17T04:31:57.831Z,9.97
2022-10-17T04:34:36.660Z,9.84
2022-10-17T04:37:06.462Z,9.98
2022-10-17T04:39:34.730Z,9.87
2022-10-17T04:42:04.568Z,9.83
2022-10-17T04:44:33.716Z,9.82
2022-10-17T04:47:01.675Z,9.84
2022-10-17T04:49:29.135Z,9.89
2022-10-17T04:52:02.411Z,9.92
2022-10-17T04:54:38.824Z,9.91
2022-10-17T04:57:09.251Z,9.90
2022-10-17T04:59:37.468Z,9.87
2022-10-17T05:02:34.576Z,9.98
2022-10-17T05:05:03.861Z,10.00
2022-10-17T05:07:31.599Z,10.01
2022-10-17T05:10:02.830Z,10.01
2022-10-17T05:12:31.854Z,9.93
2022-10-17T05:14:59.714Z,10.08
2022-10-17T05:17:30.362Z,10.02
2022-10-17T05:19:57.792Z,10.00
2022-10-17T05:22:24.990Z,10.17
2022-10-17T05:24:52.543Z,10.40
2022-10-17T05:27:19.736Z,10.38
2022-10-17T05:29:47.095Z,10.40
2022-10-17T05:32:20.629Z,10.57
2022-10-17T05:34:48.593Z,10.67
2022-10-17T05:37:15.963Z,10.93
2022-10-17T05:39:50.695Z,10.93
2022-10-17T05:42:18.726Z,10.85
2022-10-17T05:44:47.078Z,10.85
2022-10-17T05:47:16.174Z,10.80
2022-10-17T05:49:48.724Z,10.92
2022-10-17T05:52:21.949Z,11.05
2022-10-17T05:55:06.956Z,11.14
2022-10-17T05:57:34.507Z,11.26
2022-10-17T06:00:04.945Z,11.38
2022-10-17T06:02:42.761Z,11.41
2022-10-17T06:05:12.926Z,11.50
2022-10-17T06:07:40.572Z,11.64
2022-10-17T06:10:09.048Z,11.62
2022-10-17T06:12:36.529Z,11.80
2022-10-17T06:15:04.780Z,11.97
2022-10-17T06:17:32.045Z,12.35
2022-10-17T06:20:00.079Z,12.74
2022-10-17T06:22:27.649Z,12.97
2022-10-17T06:24:56.773Z,13.42
2022-10-17T06:27:24.226Z,16.44
2022-10-17T06:29:51.650Z,18.43
2022-10-17T06:32:18.950Z,17.61
2022-10-17T06:34:47.555Z,16.16
2022-10-17T06:37:15.678Z,16.13
2022-10-17T06:39:43.931Z,19.11
2022-10-17T06:42:13.657Z,21.74
2022-10-17T06:44:51.347Z,23.93
2022-10-17T06:47:33.177Z,23.91
2022-10-17T06:50:07.129Z,21.54
2022-10-17T06:52:57.436Z,19.42
2022-10-17T06:55:43.543Z,18.04
2022-10-17T06:58:24.011Z,17.58
2022-10-17T07:01:10.818Z,18.01
2022-10-17T07:03:39.376Z,19.74
2022-10-17T07:06:07.732Z,22.53
2022-10-17T07:08:34.926Z,24.33
2022-10-17T07:11:15.463Z,25.58
2022-10-17T07:13:43.029Z,25.64
2022-10-17T07:16:10.969Z,23.91
2022-10-17T07:18:40.183Z,24.12
2022-10-17T07:21:08.890Z,22.65
2022-10-17T07:23:37.864Z,23.46
2022-10-17T07:26:08.207Z,24.80
2022-10-17T07:28:39.157Z,26.53
2022-10-17T07:31:20.296Z,27.00
2022-10-17T07:33:47.673Z,25.89
2022-10-17T07:36:15.592Z,24.90
2022-10-17T07:38:43.327Z,25.62
2022-10-17T07:41:16.556Z,23.07
2022-10-17T07:43:47.107Z,20.29
2022-10-17T07:46:16.629Z,19.41
2022-10-17T07:48:45.051Z,18.94
2022-10-17T07:51:12.658Z,18.50
2022-10-17T07:53:42.679Z,18.13
2022-10-17T07:56:12.752Z,16.85
2022-10-17T07:58:40.275Z,18.06
2022-10-17T08:01:15.697Z,18.06
2022-10-17T08:03:48.788Z,19.21
2022-10-17T08:06:19.357Z,18.04
2022-10-17T08:08:46.683Z,18.46
2022-10-17T08:11:17.089Z,17.45
2022-10-17T08:13:44.385Z,15.93
2022-10-17T08:16:14.455Z,16.44
2022-10-17T08:18:43.496Z,18.70
2022-10-17T08:21:13.451Z,20.14
2022-10-17T08:23:41.474Z,22.35
2022-10-17T08:26:14.394Z,23.65
2022-10-17T08:28:41.860Z,23.34
2022-10-17T08:31:19.790Z,22.62
2022-10-17T08:33:48.578Z,21.46
2022-10-17T08:36:19.235Z,19.93
2022-10-17T08:38:52.764Z,22.12
2022-10-17T08:41:29.664Z,19.94
2022-10-17T08:44:11.878Z,18.74
2022-10-17T08:46:47.043Z,18.90
2022-10-17T08:49:47.099Z,17.14
2022-10-17T08:52:45.218Z,16.93
2022-10-17T08:55:44.622Z,17.04
2022-10-17T08:58:26.145Z,16.06
2022-10-17T09:01:26.248Z,16.09
2022-10-17T09:04:15.405Z,15.90
2022-10-17T09:07:09.267Z,16.99
2022-10-17T09:10:03.603Z,16.64
2022-10-17T09:12:44.840Z,19.23
2022-10-17T09:15:31.018Z,21.25
2022-10-17T09:18:28.324Z,22.25
2022-10-17T09:21:11.665Z,23.04
2022-10-17T09:23:47.441Z,22.60
2022-10-17T09:26:15.581Z,19.63
2022-10-17T09:28:43.944Z,17.97
2022-10-17T09:31:13.926Z,17.49
2022-10-17T09:33:54.380Z,17.95
2022-10-17T09:36:34.443Z,19.77
2022-10-17T09:39:05.086Z,20.68
2022-10-17T09:41:46.832Z,20.65
2022-10-17T09:44:17.252Z,20.32
2022-10-17T09:47:14.220Z,17.86
2022-10-17T09:49:43.918Z,18.47
2022-10-17T09:52:27.372Z,21.08
2022-10-17T09:54:58.311Z,20.84
2022-10-17T09:57:26.454Z,21.36
2022-10-17T10:00:00.146Z,20.68
2022-10-17T10:02:30.626Z,18.34
2022-10-17T10:05:06.454Z,18.65
2022-10-17T10:07:39.310Z,17.07
2022-10-17T10:10:23.196Z,16.67
2022-10-17T10:13:15.915Z,16.49
2022-10-17T10:15:46.140Z,16.81
2022-10-17T10:18:25.880Z,18.20
2022-10-17T10:21:16.241Z,18.79
2022-10-17T10:23:45.550Z,17.62
2022-10-17T10:26:25.894Z,17.07
2022-10-17T10:28:53.406Z,16.74
2022-10-17T10:31:28.809Z,17.10
2022-10-17T10:33:57.730Z,16.38
2022-10-17T10:36:25.046Z,16.84
2022-10-17T10:38:57.674Z,17.97
2022-10-17T10:41:27.878Z,18.31
2022-10-17T10:43:56.508Z,19.55
2022-10-17T10:46:28.405Z,20.38
2022-10-17T10:48:59.773Z,18.58
2022-10-17T10:51:41.194Z,18.12
2022-10-17T10:54:21.765Z,19.10
2022-10-17T10:56:54.898Z,19.28
2022-10-17T10:59:51.834Z,18.78
2022-10-17T11:02:40.502Z,17.90
2022-10-17T11:05:43.077Z,17.33
2022-10-17T11:08:34.612Z,16.59
2022-10-17T11:11:17.883Z,17.21
2022-10-17T11:14:08.065Z,17.69
2022-10-17T11:16:42.262Z,17.61
2022-10-17T11:19:15.193Z,18.20
2022-10-17T11:21:56.920Z,17.31
2022-10-17T11:24:28.250Z,17.38
2022-10-17T11:27:05.930Z,17.11
2022-10-17T11:29:36.348Z,16.75
2022-10-17T11:32:11.376Z,17.08
2022-10-17T11:34:45.502Z,16.60
2022-10-17T11:37:22.013Z,17.21
2022-10-17T11:39:56.711Z,17.02
2022-10-17T11:42:30.470Z,16.91
2022-10-17T11:45:04.803Z,17.39
2022-10-17T11:47:45.094Z,16.98
2022-10-17T11:53:21.987Z,17.23
2022-10-17T11:55:51.896Z,17.55
2022-10-17T11:58:40.979Z,18.04
2022-10-17T12:01:08.437Z,17.09
2022-10-17T12:03:47.764Z,16.77
2022-10-17T12:06:40.171Z,16.84
2022-10-17T12:09:37.238Z,16.73
2022-10-17T12:12:04.936Z,16.50
2022-10-17T12:14:47.522Z,17.10
2022-10-17T12:17:34.913Z,16.65
2022-10-17T12:20:27.594Z,16.58
2022-10-17T12:23:10.984Z,16.37
2022-10-17T12:25:48.429Z,16.51
2022-10-17T12:28:39.531Z,16.76
2022-10-17T12:31:13.192Z,17.13
2022-10-17T12:33:46.661Z,16.90
2022-10-17T12:36:25.943Z,16.62
2022-10-17T12:39:02.374Z,16.34
2022-10-17T12:41:38.916Z,16.59
2022-10-17T12:44:15.550Z,16.92
2022-10-17T12:46:51.964Z,17.40
2022-10-17T12:49:40.746Z,17.13
2022-10-17T12:52:30.035Z,17.10
2022-10-17T12:55:18.313Z,16.91
2022-10-17T12:58:08.399Z,17.00
2022-10-17T13:01:18.872Z,16.91
2022-10-17T13:03:49.232Z,17.05
2022-10-17T13:06:22.456Z,17.01
2022-10-17T13:09:04.144Z,17.10
2022-10-17T13:11:36.289Z,17.19
2022-10-17T13:14:12.514Z,17.06
2022-10-17T13:17:02.208Z,17.00
2022-10-17T13:19:44.762Z,17.35
2022-10-17T13:22:17.489Z,17.15
2022-10-17T13:24:45.644Z,17.30
2022-10-17T13:27:33.377Z,17.33
2022-10-17T13:30:03.638Z,17.32
2022-10-17T13:32:39.716Z,17.27
2022-10-17T13:35:17.217Z,17.43
2022-10-17T13:37:51.547Z,17.20
2022-10-17T13:40:44.609Z,17.29
2022-10-17T13:43:19.943Z,17.24
2022-10-17T13:45:51.641Z,17.37
2022-10-17T13:48:30.106Z,17.45
2022-10-17T13:51:02.809Z,17.40
2022-10-17T13:53:40.009Z,17.50
2022-10-17T13:56:34.713Z,17.66
2022-10-17T13:59:17.498Z,17.79
2022-10-17T14:01:45.290Z,17.63
2022-10-17T14:04:19.759Z,17.59
2022-10-17T14:06:51.120Z,17.65
2022-10-17T14:09:25.924Z,17.57
2022-10-17T14:12:02.638Z,17.76
2022-10-17T14:14:41.675Z,17.62
2022-10-17T14:17:25.298Z,17.75
2022-10-17T14:20:34.070Z,17.58
2022-10-17T14:23:04.504Z,17.58
2022-10-17T14:25:37.456Z,17.60
2022-10-17T14:28:09.579Z,17.56
2022-10-17T14:30:56.685Z,17.51
2022-10-17T14:33:29.024Z,17.49
2022-10-17T14:35:58.588Z,17.47
2022-10-17T14:38:27.750Z,17.44
2022-10-17T14:43:59.746Z,17.45
2022-10-17T14:46:27.932Z,17.37
2022-10-17T14:49:02.563Z,17.41
2022-10-17T14:51:39.953Z,17.42
2022-10-17T14:54:27.396Z,17.33
2022-10-17T14:56:55.019Z,17.25
2022-10-17T14:59:51.503Z,17.34
2022-10-17T15:02:12.245Z,17.24
2022-10-17T15:04:39.628Z,17.22
2022-10-17T15:07:06.892Z,17.24
2022-10-17T15:09:34.330Z,17.21
2022-10-17T15:12:04.232Z,17.23
2022-10-17T15:14:31.740Z,17.15
2022-10-17T15:16:58.917Z,17.13
2022-10-17T15:19:30.824Z,17.09
2022-10-17T15:22:10.104Z,17.03
2022-10-17T15:25:03.768Z,17.03
2022-10-17T15:27:38.828Z,16.93
2022-10-17T15:30:29.178Z,16.88
2022-10-17T15:33:08.759Z,16.90
2022-10-17T15:35:50.931Z,16.84
2022-10-17T15:38:31.245Z,16.83
2022-10-17T15:41:14.668Z,16.93
2022-10-17T15:43:46.271Z,16.80
2022-10-17T15:46:32.246Z,16.81
2022-10-17T15:49:12.431Z,16.81
2022-10-17T15:51:49.329Z,16.87
2022-10-17T15:54:21.528Z,16.92
2022-10-17T15:56:54.119Z,16.83
2022-10-17T15:59:24.445Z,16.94
2022-10-17T16:01:52.098Z,16.83
2022-10-17T16:04:19.293Z,16.74
2022-10-17T16:06:46.689Z,16.76
2022-10-17T16:09:13.882Z,16.70
2022-10-17T16:11:43.412Z,16.68
2022-10-17T16:14:13.379Z,16.68
2022-10-17T16:16:40.940Z,16.68
2022-10-17T16:19:08.855Z,16.64
2022-10-17T16:21:39.076Z,16.57
2022-10-17T16:24:06.516Z,16.53
2022-10-17T16:26:33.949Z,16.61
2022-10-17T16:29:03.540Z,16.58
2022-10-17T16:31:34.051Z,16.48
2022-10-17T16:34:02.895Z,16.45
2022-10-17T16:36:30.574Z,16.47
2022-10-17T16:38:58.257Z,16.47
2022-10-17T16:41:39.598Z,16.50
2022-10-17T16:44:09.184Z,16.46
2022-10-17T16:46:37.735Z,16.49
2022-10-17T16:49:05.573Z,16.42
2022-10-17T16:51:36.736Z,16.45
2022-10-17T16:54:04.701Z,16.47
2022-10-17T16:56:33.021Z,16.44
2022-10-17T16:59:01.368Z,16.47
2022-10-17T17:01:32.112Z,16.44
2022-10-17T17:03:59.359Z,16.31
2022-10-17T17:06:29.305Z,16.39
2022-10-17T17:08:57.575Z,16.40
2022-10-17T17:11:27.325Z,16.36
2022-10-17T17:13:59.073Z,16.33
2022-10-17T17:16:27.607Z,16.40
2022-10-17T17:19:00.559Z,16.30
2022-10-17T17:21:28.048Z,16.34
2022-10-17T17:23:58.853Z,16.34
2022-10-17T17:26:29.769Z,16.45
2022-10-17T17:28:59.276Z,16.44
2022-10-17T17:31:29.469Z,16.38
2022-10-17T17:33:57.757Z,16.43
2022-10-17T17:36:30.982Z,16.39
2022-10-17T17:39:00.368Z,16.41
2022-10-17T17:41:28.490Z,16.41
2022-10-17T17:43:56.209Z,16.43
2022-10-17T17:46:24.897Z,16.49
2022-10-17T17:48:53.651Z,16.48
2022-10-17T17:51:28.451Z,16.50
2022-10-17T17:53:59.664Z,16.60
2022-10-17T17:56:29.002Z,16.68
2022-10-17T17:59:01.273Z,16.62
2022-10-17T18:01:35.234Z,16.70
2022-10-17T18:04:04.643Z,16.73
2022-10-17T18:06:32.032Z,16.77
2022-10-17T18:08:59.497Z,16.78
2022-10-17T18:11:27.736Z,16.79
2022-10-17T18:13:57.434Z,16.96
2022-10-17T18:16:26.338Z,16.94
2022-10-17T18:18:53.899Z,16.98
2022-10-17T18:21:22.011Z,16.92
2022-10-17T18:23:49.739Z,16.99
2022-10-17T18:26:17.599Z,17.00
2022-10-17T18:28:45.090Z,17.06
2022-10-17T18:31:35.645Z,17.12
2022-10-17T18:34:04.785Z,17.23
2022-10-17T18:36:33.667Z,17.28
2022-10-17T18:39:02.138Z,17.33
2022-10-17T18:41:30.121Z,17.38
2022-10-17T18:43:58.040Z,17.47
2022-10-17T18:46:29.037Z,17.50
2022-10-17T18:48:56.541Z,17.51
2022-10-17T18:51:25.932Z,17.49
2022-10-17T18:53:55.289Z,17.54
2022-10-17T18:56:23.463Z,17.58
2022-10-17T18:58:51.041Z,17.61
2022-10-17T19:01:20.922Z,17.66
2022-10-17T19:03:49.702Z,17.72
2022-10-17T19:06:20.662Z,17.75
2022-10-17T19:08:48.546Z,17.78
2022-10-17T19:11:19.056Z,17.81
2022-10-17T19:13:47.554Z,17.82
2022-10-17T19:16:17.695Z,17.83
2022-10-17T19:18:52.615Z,17.94
2022-10-17T19:21:21.954Z,17.99
2022-10-17T19:24:00.507Z,18.10
2022-10-17T19:26:30.460Z,18.10
2022-10-17T19:29:00.397Z,18.17
2022-10-17T19:31:31.718Z,18.22
2022-10-17T19:33:59.939Z,18.38
2022-10-17T19:36:33.263Z,18.40
2022-10-17T19:39:04.522Z,18.43
2022-10-17T19:41:32.836Z,18.30
2022-10-17T19:44:00.663Z,18.38
2022-10-17T19:46:29.726Z,18.33
2022-10-17T19:48:57.454Z,18.27
2022-10-17T19:51:26.396Z,18.27
2022-10-17T19:53:55.634Z,18.22
2022-10-17T19:56:25.006Z,18.24
2022-10-17T19:58:54.440Z,18.20
2022-10-17T20:01:27.401Z,18.20
2022-10-17T20:03:55.450Z,18.27
2022-10-17T20:06:23.745Z,18.33
2022-10-17T20:08:51.496Z,18.28
2022-10-17T20:11:25.435Z,18.42
2022-10-17T20:13:54.059Z,18.44
2022-10-17T20:16:24.386Z,18.44
2022-10-17T20:18:54.702Z,18.41
2022-10-17T20:21:27.285Z,18.42
2022-10-17T20:23:54.971Z,18.47
2022-10-17T20:26:37.049Z,18.45
2022-10-17T20:29:10.832Z,18.41
2022-10-17T20:31:40.019Z,18.43
2022-10-17T20:34:07.255Z,18.37
2022-10-17T20:36:37.505Z,18.41
2022-10-17T20:39:06.036Z,18.37
2022-10-17T20:41:33.881Z,18.34
2022-10-17T20:44:01.294Z,18.28
2022-10-17T20:46:36.964Z,18.31
2022-10-17T20:49:06.395Z,18.39
2022-10-17T20:51:34.823Z,18.36
2022-10-17T20:54:03.128Z,18.29
2022-10-17T20:56:32.258Z,18.28
2022-10-17T20:59:05.653Z,18.20
2022-10-17T21:01:34.707Z,18.12
2022-10-17T21:04:21.239Z,18.05
2022-10-17T21:06:51.349Z,18.22
2022-10-17T21:09:18.925Z,18.21
2022-10-17T21:11:46.382Z,18.16
2022-10-17T21:14:16.750Z,18.18
2022-10-17T21:16:44.258Z,18.06
2022-10-17T21:19:12.321Z,17.98
2022-10-17T21:21:42.484Z,17.97
2022-10-17T21:24:16.868Z,17.95
2022-10-17T21:26:45.723Z,17.95
2022-10-17T21:29:14.004Z,17.97
2022-10-17T21:31:44.168Z,17.95
2022-10-17T21:34:14.152Z,17.99
2022-10-17T21:36:42.164Z,17.79
2022-10-17T21:39:11.199Z,17.83
2022-10-17T21:41:38.756Z,17.80
2022-10-17T21:44:14.934Z,17.78
2022-10-17T21:46:43.552Z,17.73
2022-10-17T21:49:16.049Z,17.68
2022-10-17T21:51:44.789Z,17.70
2022-10-17T21:54:12.294Z,17.65
2022-10-17T21:56:40.245Z,17.69
2022-10-17T21:59:07.883Z,17.66
2022-10-17T22:01:38.667Z,17.61
2022-10-17T22:04:08.924Z,17.60
2022-10-17T22:06:40.114Z,17.58
2022-10-17T22:09:10.047Z,17.51
2022-10-17T22:11:37.573Z,17.51
2022-10-17T22:14:12.588Z,17.48
2022-10-17T22:16:40.972Z,17.30
2022-10-17T22:19:08.884Z,17.38
2022-10-17T22:21:37.573Z,17.35
2022-10-17T22:24:10.381Z,17.33
2022-10-17T22:26:38.313Z,17.28
2022-10-17T22:29:07.233Z,17.07
2022-10-17T22:31:35.279Z,17.01
2022-10-17T22:34:05.103Z,16.86
2022-10-17T22:36:33.891Z,16.81
2022-10-17T22:39:01.434Z,16.95
2022-10-17T22:41:29.001Z,17.01
2022-10-17T22:43:56.461Z,16.83
2022-10-17T22:46:24.173Z,16.80
2022-10-17T22:48:51.377Z,16.82
2022-10-17T22:51:18.850Z,16.92
2022-10-17T22:53:46.105Z,17.02
2022-10-17T22:56:21.585Z,16.98
2022-10-17T22:58:49.231Z,16.90
2022-10-17T23:01:22.426Z,16.88
2022-10-17T23:03:50.976Z,16.98
2022-10-17T23:06:18.910Z,16.98
2022-10-17T23:08:46.225Z,16.93
2022-10-17T23:11:14.027Z,16.89
2022-10-17T23:13:41.549Z,17.00
2022-10-17T23:16:09.231Z,17.01
2022-10-17T23:18:38.061Z,16.92
2022-10-17T23:21:06.721Z,16.96
2022-10-17T23:23:34.031Z,17.03
2022-10-17T23:26:12.884Z,16.92
2022-10-17T23:28:42.483Z,16.91
2022-10-17T23:31:20.958Z,16.88
2022-10-17T23:33:49.759Z,16.66
2022-10-17T23:36:19.726Z,16.80
2022-10-17T23:38:48.262Z,16.92
2022-10-17T23:41:16.391Z,16.76
2022-10-17T23:43:44.040Z,16.54
2022-10-17T23:46:12.395Z,16.48
2022-10-17T23:48:40.358Z,16.48
2022-10-17T23:51:09.074Z,16.65
2022-10-17T23:53:37.611Z,16.42
2022-10-17T23:56:06.193Z,16.44
2022-10-17T23:58:33.746Z,16.45
